Daviess Cnty AP, Washington,, IN

2:24 PM EDT on October 19, 2019 (GMT -0400)
Daviess County

Weather History for KDCY - September, 2019

Change the Weather History Date:

Wednesday, September 18, 2019

  Actual Average (KLWV) Record (KLWV)
Temperature  
Mean Temperature 71 °F -  
Max Temperature 86 °F 78 °F 95 °F (2018)
Min Temperature 56 °F 52 °F 44 °F (2012)
Cooling Degree Days 6    
Growing Degree Days 21 (Base 50)    
Moisture  
Dew Point 61 °F    
Average Humidity 76    
Maximum Humidity 99    
Minimum Humidity 40    
Precipitation  
Precipitation 0.00 in - - ()
Sea Level Pressure  
Sea Level Pressure 30.07 in    
Wind  
Wind Speed 1 mph (ENE)    
Max Wind Speed 10 mph    
Max Gust Speed 16 mph    
Visibility 10 miles    
Events      
Averages and records for this station are not official NWS values.
T = Trace of Precipitation, MM = Missing Value Source: NWS Daily Summary

Daily Weather History Graph

Daily Weather History Graph

Search for Another Location

Airport or City:

Astronomy

Sep. 18, 2019 Rise Set
Actual Time 7:32 AM EDT 7:52 PM EDT
Civil Twilight 7:05 AM EDT 8:18 PM EDT
Nautical Twilight 6:34 AM EDT 8:49 PM EDT
Astronomical Twilight 6:02 AM EDT 9:21 PM EDT
Moon 10:28 PM EDT (9/18) 11:32 AM EDT (9/18)
Length of Visible Light 13h 12m
Length of Day
12h 19m
Waning Gibbous, 82% of the Moon is Illuminated
Sep 18
Waning Gibbous
Sep 21
Last Quarter
Sep 28
New
Oct 5
First Quarter
Oct 13
Full

Hourly Weather History & Observations

Time (EDT) Temp. Heat Index Dew Point Humidity Pressure Visibility Wind Dir Wind Speed Gust Speed Precip Events Conditions
12:15 AM 64.6 °F - 61.9 °F 91% 30.06 in 10.0 mi Calm Calm - N/A   Clear
12:55 AM 63.1 °F - 62.8 °F 99% 30.06 in 10.0 mi Calm Calm - N/A   Clear
1:15 AM 64.9 °F - 64.0 °F 97% 30.06 in 10.0 mi Calm Calm - N/A   Clear
1:35 AM 61.3 °F - 61.0 °F 99% 30.07 in 10.0 mi Calm Calm - N/A   Clear
1:55 AM 65.3 °F - 64.9 °F 99% 30.08 in 10.0 mi Calm Calm - N/A   Clear
2:15 AM 64.2 °F - 64.0 °F 99% 30.08 in 10.0 mi Calm Calm - N/A   Clear
2:35 AM 63.3 °F - 63.1 °F 99% 30.08 in 10.0 mi Calm Calm - N/A   Clear
2:55 AM 61.3 °F - 61.2 °F 99% 30.08 in 10.0 mi Calm Calm - N/A   Clear
3:15 AM 61.5 °F - 61.3 °F 99% 30.07 in 10.0 mi Calm Calm - N/A   Clear
3:35 AM 60.4 °F - 60.1 °F 99% 30.07 in 10.0 mi Calm Calm - N/A   Clear
3:55 AM 59.4 °F - 59.2 °F 99% 30.07 in 10.0 mi Calm Calm - N/A   Clear
4:15 AM 59.2 °F - 59.0 °F 99% 30.07 in 10.0 mi Calm Calm - N/A   Clear
4:30 AM 59.2 °F - 59.0 °F 99% 30.07 in 10.0 mi Calm Calm - N/A   Clear
4:55 AM 59.0 °F - 58.8 °F 99% 30.06 in 7.0 mi Calm Calm - N/A   Clear
5:10 AM 58.5 °F - 58.3 °F 99% 30.07 in 7.0 mi Calm Calm - N/A   Clear
5:35 AM 57.6 °F - 57.4 °F 99% 30.06 in 10.0 mi Calm Calm - N/A   Clear
5:55 AM 57.7 °F - 57.6 °F 99% 30.06 in 10.0 mi Calm Calm - N/A   Clear
6:15 AM 58.1 °F - 57.9 °F 99% 30.07 in 10.0 mi Calm Calm - N/A   Clear
6:35 AM 58.1 °F - 57.7 °F 99% 30.07 in 10.0 mi Calm Calm - N/A   Clear
6:55 AM 60.1 °F - 59.7 °F 99% 30.07 in 10.0 mi Calm Calm - N/A   Clear
7:15 AM 57.6 °F - 57.4 °F 99% 30.08 in 10.0 mi Calm Calm - N/A   Clear
7:35 AM 56.8 °F - 56.7 °F 99% 30.08 in 5.0 mi Calm Calm - N/A   Clear
7:55 AM 56.8 °F - 56.5 °F 99% 30.08 in 7.0 mi Calm Calm - N/A   Clear
8:15 AM 59.4 °F - 59.0 °F 99% 30.10 in 10.0 mi Calm Calm - N/A   Clear
8:35 AM 62.8 °F - 62.6 °F 99% 30.10 in 10.0 mi Calm Calm - N/A   Clear
8:55 AM 64.8 °F - 63.1 °F 94% 30.10 in 10.0 mi Calm Calm - N/A   Clear
9:15 AM 67.3 °F - 62.6 °F 85% 30.10 in 10.0 mi ESE 4.6 mph - N/A   Clear
9:35 AM 68.5 °F - 62.6 °F 81% 30.10 in 10.0 mi East 6.9 mph - N/A   Clear
9:55 AM 70.5 °F - 61.3 °F 73% 30.10 in 10.0 mi ESE 4.6 mph - N/A   Clear
10:15 AM 72.0 °F - 61.7 °F 70% 30.10 in 10.0 mi East 4.6 mph - N/A   Clear
10:35 AM 73.6 °F - 61.9 °F 67% 30.10 in 10.0 mi Calm Calm - N/A   Clear
10:55 AM 75.4 °F - 62.8 °F 65% 30.09 in 10.0 mi Calm Calm - N/A   Clear
11:15 AM 76.1 °F - 62.1 °F 62% 30.10 in 10.0 mi Calm Calm - N/A   Clear
11:35 AM 77.7 °F - 62.6 °F 60% 30.10 in 10.0 mi North 3.5 mph - N/A   Clear
11:55 AM 79.0 °F - 61.7 °F 55% 30.10 in 10.0 mi ESE 3.5 mph - N/A   Clear
12:15 PM 80.6 °F 81.8 °F 62.6 °F 54% 30.10 in 10.0 mi East 4.6 mph - N/A   Clear
12:35 PM 82.2 °F 82.9 °F 61.5 °F 49% 30.10 in 10.0 mi ENE 6.9 mph - N/A   Clear
12:55 PM 81.9 °F 82.6 °F 61.5 °F 50% 30.10 in 10.0 mi East 4.6 mph - N/A   Clear
1:15 PM 82.9 °F 83.3 °F 60.6 °F 47% 30.10 in 10.0 mi East 5.8 mph - N/A   Clear
1:35 PM 81.7 °F 82.0 °F 59.7 °F 47% 30.08 in 10.0 mi SE 6.9 mph - N/A   Clear
1:55 PM 84.6 °F 84.0 °F 58.6 °F 41% 30.08 in 10.0 mi East 5.8 mph - N/A   Clear
2:15 PM 84.4 °F 84.4 °F 60.3 °F 44% 30.08 in 10.0 mi ESE 5.8 mph 16.1 mph N/A   Clear
2:35 PM 85.3 °F 85.0 °F 59.9 °F 42% 30.07 in 10.0 mi ESE 8.1 mph - N/A   Clear
2:55 PM 84.9 °F 84.6 °F 59.4 °F 42% 30.07 in 10.0 mi ESE 9.2 mph 16.1 mph N/A   Clear
3:15 PM 86.5 °F 86.1 °F 59.9 °F 40% 30.07 in 10.0 mi ENE 10.4 mph - N/A   Clear
3:35 PM 86.0 °F 86.1 °F 61.0 °F 43% 30.06 in 10.0 mi ESE 3.5 mph - N/A   Clear
3:55 PM 85.8 °F 85.7 °F 60.4 °F 42% 30.05 in 10.0 mi North 3.5 mph - N/A   Clear
4:15 PM 85.6 °F 85.9 °F 61.5 °F 44% 30.05 in 10.0 mi NNE 4.6 mph - N/A   Clear
4:35 PM 84.9 °F 85.2 °F 61.2 °F 45% 30.05 in 10.0 mi NE 8.1 mph - N/A   Clear
4:55 PM 84.7 °F 84.6 °F 60.3 °F 43% 30.04 in 10.0 mi Calm Calm - N/A   Clear
5:15 PM 85.1 °F 85.7 °F 61.9 °F 46% 30.04 in 10.0 mi North 5.8 mph - N/A   Clear
5:30 PM 84.9 °F 85.6 °F 62.6 °F 47% 30.03 in 10.0 mi NNE 3.5 mph - N/A   Clear
5:55 PM 83.8 °F 84.7 °F 62.8 °F 49% 30.03 in 10.0 mi NNE 5.8 mph - N/A   Clear
6:15 PM 83.7 °F 84.5 °F 62.6 °F 49% 30.03 in 10.0 mi NNE 8.1 mph - N/A   Clear
6:35 PM 83.5 °F 84.1 °F 62.1 °F 48% 30.03 in 10.0 mi NE 5.8 mph - N/A   Clear
6:55 PM 82.8 °F 83.4 °F 62.1 °F 49% 30.03 in 10.0 mi NE 5.8 mph - N/A   Clear
7:15 PM 81.0 °F 82.1 °F 62.2 °F 53% 30.03 in 10.0 mi NE 3.5 mph - N/A   Clear
7:35 PM 79.7 °F - 62.4 °F 55% 30.03 in 10.0 mi Calm Calm - N/A   Clear
7:55 PM 75.6 °F - 63.5 °F 66% 30.03 in 10.0 mi Calm Calm - N/A   Clear
8:15 PM 69.4 °F - 63.5 °F 81% 30.04 in 10.0 mi Calm Calm - N/A   Clear
8:35 PM 68.4 °F - 63.1 °F 83% 30.04 in 10.0 mi Calm Calm - N/A   Clear
8:55 PM 68.0 °F - 62.2 °F 82% 30.04 in 10.0 mi Calm Calm - N/A   Clear
9:15 PM 68.2 °F - 61.9 °F 80% 30.04 in 10.0 mi Calm Calm - N/A   Clear
9:35 PM 64.9 °F - 62.2 °F 91% 30.04 in 10.0 mi Calm Calm - N/A   Clear
9:55 PM 66.9 °F - 61.5 °F 83% 30.05 in 10.0 mi Calm Calm - N/A   Clear
10:15 PM 64.4 °F - 61.7 °F 91% 30.05 in 10.0 mi Calm Calm - N/A   Clear
10:35 PM 64.0 °F - 63.7 °F 99% 30.05 in 10.0 mi Calm Calm - N/A   Clear
10:55 PM 63.9 °F - 63.5 °F 99% 30.05 in 10.0 mi Calm Calm - N/A   Clear
11:15 PM 62.8 °F - 62.6 °F 99% 30.05 in 10.0 mi Calm Calm - N/A   Clear
11:35 PM 63.1 °F - 63.0 °F 99% 30.05 in 10.0 mi Calm Calm - N/A   Clear
11:55 PM 62.8 °F - 62.6 °F 99% 30.05 in 10.0 mi Calm Calm - N/A   Clear